Time;durP1;ratioP1;P1;durP2;ratioP2;P2;SDS_P1;SDS_P2;PMS_P1;PMS_P2;Temp;Humidity;BMP_temperature;BMP_pressure;BME280_temperature;BME280_humidity;BME280_pressure;Samples;Min_cycle;Max_cycle;Signal;HPM_P1;HPM_P2
2021/10/03 00:01:00;;;;;;;9.07;8.17;;;16.70;99.90;;;;;;5110710;28;20228;-71
2021/10/03 00:03:28;;;;;;;10.13;9.10;;;16.70;99.90;;;;;;5110557;28;20628;-72
2021/10/03 00:05:57;;;;;;;11.33;8.77;;;16.70;99.90;;;;;;5110511;28;20267;-72
2021/10/03 00:08:26;;;;;;;9.97;9.00;;;16.70;99.90;;;;;;5109992;28;20214;-71
2021/10/03 00:10:53;;;;;;;8.97;8.17;;;16.70;99.90;;;;;;5110621;28;20223;-71
2021/10/03 00:13:21;;;;;;;10.03;9.03;;;16.70;99.90;;;;;;5110347;28;20240;-71
2021/10/03 00:15:48;;;;;;;14.20;9.50;;;16.70;99.90;;;;;;5109140;28;20206;-73
2021/10/03 00:18:15;;;;;;;9.83;8.87;;;16.70;99.90;;;;;;5110519;28;20251;-74
2021/10/03 00:20:42;;;;;;;12.70;9.57;;;16.70;99.90;;;;;;5110131;28;20198;-73
2021/10/03 00:23:09;;;;;;;9.93;9.03;;;16.60;99.90;;;;;;5110236;28;20230;-73
2021/10/03 00:25:38;;;;;;;11.70;10.50;;;16.60;99.90;;;;;;5110240;28;20255;-72
2021/10/03 00:28:07;;;;;;;11.97;8.47;;;16.60;99.90;;;;;;5109997;28;20206;-73
2021/10/03 00:30:34;;;;;;;10.73;9.63;;;16.60;99.90;;;;;;5110233;28;20214;-73
2021/10/03 00:33:01;;;;;;;11.07;9.97;;;16.60;99.90;;;;;;5110013;28;20292;-73
2021/10/03 00:35:28;;;;;;;11.03;9.83;;;16.60;99.90;;;;;;5109815;28;20239;-73
2021/10/03 00:37:55;;;;;;;10.57;9.47;;;16.60;99.90;;;;;;5109805;28;20206;-73
2021/10/03 00:40:23;;;;;;;11.40;10.17;;;16.50;99.90;;;;;;5109898;28;20259;-73
2021/10/03 00:42:51;;;;;;;11.27;10.10;;;16.60;99.90;;;;;;5109893;28;20229;-73
2021/10/03 00:45:18;;;;;;;10.43;9.53;;;16.60;99.90;;;;;;5109845;28;20206;-73
2021/10/03 00:47:45;;;;;;;11.70;10.53;;;16.60;99.90;;;;;;5109775;28;20206;-73
2021/10/03 00:50:14;;;;;;;11.00;9.90;;;16.60;99.90;;;;;;5109749;28;20617;-73
2021/10/03 00:52:41;;;;;;;11.60;10.07;;;16.60;99.90;;;;;;5109823;28;20308;-73
2021/10/03 00:55:10;;;;;;;11.07;10.17;;;16.60;99.90;;;;;;5109725;28;20210;-72
2021/10/03 00:57:37;;;;;;;11.37;10.27;;;16.50;99.90;;;;;;5109448;28;20250;-74
2021/10/03 01:00:07;;;;;;;11.13;10.13;;;16.50;99.90;;;;;;5108932;28;20261;-74
2021/10/03 01:02:34;;;;;;;13.70;10.93;;;16.60;99.90;;;;;;5109693;28;20319;-74
2021/10/03 01:05:01;;;;;;;12.53;11.17;;;16.60;99.90;;;;;;5109433;28;20774;-73
2021/10/03 01:07:28;;;;;;;12.20;10.40;;;16.50;99.90;;;;;;5109183;28;20675;-73
2021/10/03 01:09:54;;;;;;;11.93;9.83;;;16.60;99.90;;;;;;5109310;28;20287;-74
2021/10/03 01:12:21;;;;;;;13.30;10.33;;;16.50;99.90;;;;;;5109184;28;20256;-73
2021/10/03 01:14:47;;;;;;;11.10;10.03;;;16.50;99.90;;;;;;5108982;28;20222;-74
2021/10/03 01:17:15;;;;;;;11.83;10.73;;;16.50;99.90;;;;;;5109156;28;20808;-72
2021/10/03 01:19:42;;;;;;;11.67;10.27;;;16.50;99.90;;;;;;5108861;28;20201;-72
2021/10/03 01:22:10;;;;;;;12.00;10.80;;;16.50;99.90;;;;;;5108904;28;20269;-73
2021/10/03 01:24:37;;;;;;;12.57;10.53;;;16.40;99.90;;;;;;5109069;28;20202;-73
2021/10/03 01:27:04;;;;;;;11.53;10.30;;;16.40;99.90;;;;;;5108603;28;20201;-73
2021/10/03 01:29:32;;;;;;;11.93;10.77;;;16.50;99.90;;;;;;5109175;27;20210;-73
2021/10/03 01:31:59;;;;;;;11.27;9.80;;;16.40;99.90;;;;;;5109005;28;20317;-73
2021/10/03 01:34:26;;;;;;;13.53;10.43;;;16.40;99.90;;;;;;5108819;28;20667;-73
2021/10/03 01:36:52;;;;;;;11.03;9.17;;;16.40;99.90;;;;;;5108743;28;20241;-73
2021/10/03 01:39:20;;;;;;;14.53;10.27;;;16.50;99.90;;;;;;5108928;28;20275;-73
2021/10/03 01:41:47;;;;;;;13.07;9.77;;;16.40;99.90;;;;;;5108857;28;20245;-73
2021/10/03 01:44:13;;;;;;;11.40;10.17;;;16.40;99.90;;;;;;5108760;28;20257;-73
2021/10/03 01:46:41;;;;;;;11.10;10.03;;;16.40;99.90;;;;;;5108926;28;20206;-73
2021/10/03 01:49:08;;;;;;;10.77;9.70;;;16.40;99.90;;;;;;5108503;28;20198;-73
2021/10/03 01:51:35;;;;;;;11.40;10.20;;;16.40;99.90;;;;;;5108817;28;20255;-72
2021/10/03 01:54:01;;;;;;;11.00;10.03;;;16.40;99.90;;;;;;5108596;28;20241;-73
2021/10/03 01:56:31;;;;;;;10.67;9.60;;;16.40;99.90;;;;;;5108729;28;20206;-73
2021/10/03 01:59:00;;;;;;;11.47;9.73;;;16.40;99.90;;;;;;5108214;28;20280;-73
2021/10/03 02:01:29;;;;;;;10.57;9.53;;;16.40;99.90;;;;;;5108752;28;20305;-73
2021/10/03 02:03:56;;;;;;;12.03;9.83;;;16.40;99.90;;;;;;5108244;28;20290;-73
2021/10/03 02:06:23;;;;;;;11.30;9.37;;;16.40;99.90;;;;;;5108612;28;20202;-73
2021/10/03 02:08:52;;;;;;;10.27;9.47;;;16.40;99.90;;;;;;5108494;28;20206;-72
2021/10/03 02:11:18;;;;;;;11.20;9.77;;;16.40;99.90;;;;;;5108464;28;20681;-73
2021/10/03 02:13:46;;;;;;;10.30;9.40;;;16.40;99.90;;;;;;5108190;28;20229;-72
2021/10/03 02:16:13;;;;;;;11.73;9.37;;;16.40;99.90;;;;;;5108189;28;20728;-72
2021/10/03 02:18:41;;;;;;;10.03;9.10;;;16.40;99.90;;;;;;5108501;28;20255;-73
2021/10/03 02:21:10;;;;;;;13.37;9.77;;;16.40;99.90;;;;;;5108468;28;20258;-73
2021/10/03 02:23:37;;;;;;;11.57;9.87;;;16.40;99.90;;;;;;5108412;28;20314;-73
2021/10/03 02:26:05;;;;;;;10.97;9.27;;;16.30;99.90;;;;;;5108423;28;20206;-73
2021/10/03 02:28:32;;;;;;;12.33;8.90;;;16.30;99.90;;;;;;5107979;28;20626;-73
2021/10/03 02:31:03;;;;;;;11.37;9.50;;;16.30;99.90;;;;;;5108439;28;20202;-71
2021/10/03 02:33:30;;;;;;;10.23;9.17;;;16.30;99.90;;;;;;5108177;28;20191;-71
2021/10/03 02:35:58;;;;;;;10.50;9.47;;;16.30;99.90;;;;;;5108287;28;20222;-72
2021/10/03 02:38:26;;;;;;;10.13;9.17;;;16.30;99.90;;;;;;5109428;28;20270;-72
2021/10/03 02:40:55;;;;;;;9.57;8.77;;;16.30;99.90;;;;;;5112003;28;21020;-73
2021/10/03 02:43:23;;;;;;;9.80;8.90;;;16.30;99.90;;;;;;5111798;28;20280;-73
2021/10/03 02:45:53;;;;;;;9.73;8.87;;;16.30;99.90;;;;;;5112218;28;20286;-73
2021/10/03 02:48:22;;;;;;;8.73;8.00;;;16.30;99.90;;;;;;5111826;28;20206;-73
2021/10/03 02:50:50;;;;;;;10.27;9.10;;;16.30;99.90;;;;;;5111998;28;20206;-73
2021/10/03 02:53:18;;;;;;;10.47;8.63;;;16.30;99.90;;;;;;5112163;28;20206;-73
2021/10/03 02:55:45;;;;;;;9.73;8.77;;;16.20;99.90;;;;;;5111840;28;20230;-71
2021/10/03 02:58:12;;;;;;;17.60;9.20;;;16.20;99.90;;;;;;5111545;28;21055;-72
2021/10/03 03:00:41;;;;;;;10.10;9.20;;;16.20;99.90;;;;;;5111806;28;20591;-72
2021/10/03 03:03:08;;;;;;;9.87;8.93;;;16.20;99.90;;;;;;5111648;28;20415;-71
2021/10/03 03:05:37;;;;;;;10.93;8.50;;;16.20;99.90;;;;;;5111857;28;20213;-72
2021/10/03 03:08:04;;;;;;;9.27;8.47;;;16.20;99.90;;;;;;5111858;28;20206;-72
2021/10/03 03:10:31;;;;;;;8.77;7.93;;;16.20;99.90;;;;;;5111415;28;20667;-72
2021/10/03 03:12:57;;;;;;;9.60;8.60;;;16.20;99.90;;;;;;5111440;28;20230;-71
2021/10/03 03:15:24;;;;;;;9.90;9.00;;;16.20;99.90;;;;;;5111917;28;20306;-72
2021/10/03 03:17:51;;;;;;;9.73;8.17;;;16.10;99.90;;;;;;5111370;28;20231;-72
2021/10/03 03:20:17;;;;;;;9.10;8.37;;;16.10;99.90;;;;;;5111446;28;20594;-72
2021/10/03 03:22:45;;;;;;;9.33;8.43;;;16.10;99.90;;;;;;5111678;28;20238;-72
2021/10/03 03:25:14;;;;;;;9.60;8.70;;;16.10;99.90;;;;;;5111355;28;20419;-72
2021/10/03 03:27:41;;;;;;;11.27;8.20;;;16.20;99.90;;;;;;5111218;28;20255;-72
2021/10/03 03:30:09;;;;;;;10.40;8.53;;;16.10;99.90;;;;;;5111103;28;20283;-72
2021/10/03 03:32:36;;;;;;;8.97;8.00;;;16.10;99.90;;;;;;5111403;28;20203;-72
2021/10/03 03:35:03;;;;;;;9.63;8.23;;;16.10;99.90;;;;;;5111061;28;20265;-72
2021/10/03 03:37:30;;;;;;;9.30;8.47;;;16.10;99.90;;;;;;5111205;28;20614;-72
2021/10/03 03:39:58;;;;;;;8.50;7.63;;;16.10;99.90;;;;;;5111043;28;20267;-72
2021/10/03 03:42:24;;;;;;;10.27;8.60;;;16.10;99.90;;;;;;5111142;28;20206;-72
2021/10/03 03:44:51;;;;;;;9.90;8.43;;;16.10;99.90;;;;;;5110949;28;20675;-72
2021/10/03 03:47:18;;;;;;;8.93;8.13;;;16.10;99.90;;;;;;5110949;28;20213;-72
2021/10/03 03:49:44;;;;;;;8.10;7.30;;;16.10;99.90;;;;;;5110853;28;20262;-72
2021/10/03 03:52:11;;;;;;;9.53;7.77;;;16.10;99.90;;;;;;5110763;28;20255;-72
2021/10/03 03:54:38;;;;;;;10.77;8.93;;;16.10;99.90;;;;;;5110575;28;20263;-73
2021/10/03 03:57:06;;;;;;;8.60;7.73;;;16.10;99.90;;;;;;5110470;28;20334;-73
2021/10/03 03:59:32;;;;;;;8.83;8.00;;;16.10;99.90;;;;;;5110319;28;20234;-73
2021/10/03 04:01:59;;;;;;;9.17;7.70;;;16.10;99.90;;;;;;5110455;28;20202;-72
2021/10/03 04:04:25;;;;;;;8.50;7.80;;;16.00;99.90;;;;;;5110588;27;20311;-72
2021/10/03 04:06:52;;;;;;;9.30;8.47;;;16.00;99.90;;;;;;5110360;28;20703;-74
2021/10/03 04:09:19;;;;;;;9.30;8.37;;;16.00;99.90;;;;;;5110612;28;20238;-73
2021/10/03 04:11:45;;;;;;;8.53;7.67;;;16.10;99.90;;;;;;5110548;28;20228;-73
2021/10/03 04:14:13;;;;;;;8.37;7.37;;;16.00;99.90;;;;;;5110363;28;20261;-73
2021/10/03 04:16:40;;;;;;;8.47;7.67;;;16.00;99.90;;;;;;5110383;28;20572;-73
2021/10/03 04:19:07;;;;;;;9.10;7.80;;;16.00;99.90;;;;;;5110012;28;20234;-73
2021/10/03 04:21:33;;;;;;;8.97;8.07;;;16.00;99.90;;;;;;5110377;28;20276;-73
2021/10/03 04:24:00;;;;;;;9.73;8.00;;;16.00;99.90;;;;;;5110042;28;20229;-73
2021/10/03 04:26:28;;;;;;;8.47;7.73;;;16.00;99.90;;;;;;5110280;28;20219;-73
2021/10/03 04:28:55;;;;;;;9.07;7.73;;;16.00;99.90;;;;;;5109678;28;20210;-72
2021/10/03 04:31:23;;;;;;;9.03;8.23;;;16.00;99.90;;;;;;5110321;28;20284;-73
2021/10/03 04:33:49;;;;;;;8.50;7.80;;;16.00;99.90;;;;;;5110036;28;20795;-73
2021/10/03 04:36:16;;;;;;;8.83;7.90;;;16.00;99.90;;;;;;5109960;28;20249;-73
2021/10/03 04:38:45;;;;;;;8.70;7.90;;;15.90;99.90;;;;;;5110034;28;20284;-73
2021/10/03 04:41:11;;;;;;;9.07;8.17;;;16.00;99.90;;;;;;5109831;28;20718;-73
2021/10/03 04:43:38;;;;;;;8.53;7.30;;;15.90;99.90;;;;;;5109994;28;20254;-74
2021/10/03 04:46:05;;;;;;;8.83;7.93;;;15.90;99.90;;;;;;5110284;28;20233;-74
2021/10/03 04:48:33;;;;;;;9.53;7.50;;;15.90;99.90;;;;;;5109958;28;20202;-72
2021/10/03 04:50:59;;;;;;;8.57;7.87;;;15.90;99.90;;;;;;5109703;28;20202;-72
2021/10/03 04:53:26;;;;;;;9.40;7.63;;;15.90;99.90;;;;;;5109629;28;20210;-72
2021/10/03 04:55:53;;;;;;;8.50;7.67;;;15.90;99.90;;;;;;5109649;28;20248;-73
2021/10/03 04:58:19;;;;;;;8.20;7.30;;;15.90;99.90;;;;;;5109513;28;20279;-73
2021/10/03 05:00:46;;;;;;;9.53;8.20;;;15.90;99.90;;;;;;5108907;28;20194;-73
2021/10/03 05:03:12;;;;;;;8.23;7.53;;;15.90;99.90;;;;;;5109157;28;20237;-73
2021/10/03 05:05:44;;;;;;;8.67;7.87;;;15.90;99.90;;;;;;5109519;28;20266;-73
2021/10/03 05:08:12;;;;;;;8.53;7.67;;;15.90;99.90;;;;;;5109281;28;20255;-73
2021/10/03 05:10:39;;;;;;;10.00;8.13;;;15.90;99.90;;;;;;5109250;28;20619;-72
2021/10/03 05:13:05;;;;;;;9.07;7.30;;;15.90;99.90;;;;;;5109095;28;20229;-71
2021/10/03 05:15:32;;;;;;;9.00;8.00;;;15.80;99.90;;;;;;5109198;28;20652;-72
2021/10/03 05:17:59;;;;;;;9.43;8.43;;;15.80;99.90;;;;;;5109196;28;20230;-72
2021/10/03 05:20:25;;;;;;;8.23;7.50;;;15.90;99.90;;;;;;5109438;28;20202;-72
2021/10/03 05:22:53;;;;;;;9.20;8.00;;;15.90;99.90;;;;;;5109078;28;20572;-72
2021/10/03 05:25:20;;;;;;;8.97;8.07;;;15.90;99.90;;;;;;5109252;28;20266;-72
2021/10/03 05:27:47;;;;;;;9.13;8.20;;;15.90;99.90;;;;;;5109093;28;20202;-72
2021/10/03 05:30:13;;;;;;;10.53;8.30;;;15.90;99.90;;;;;;5108936;28;20270;-73
2021/10/03 05:32:41;;;;;;;9.33;8.43;;;15.90;99.90;;;;;;5109134;28;20202;-73
2021/10/03 05:35:09;;;;;;;8.23;7.53;;;15.90;99.90;;;;;;5108413;28;20679;-73
2021/10/03 05:37:36;;;;;;;11.30;8.47;;;15.90;99.90;;;;;;5108524;28;20700;-71
2021/10/03 05:40:05;;;;;;;9.33;8.53;;;15.90;99.90;;;;;;5109017;28;20620;-71
2021/10/03 05:42:31;;;;;;;9.07;7.67;;;15.90;99.90;;;;;;5108901;28;20201;-71
2021/10/03 05:44:58;;;;;;;8.87;8.07;;;15.90;99.90;;;;;;5108600;28;20294;-71
2021/10/03 05:47:24;;;;;;;8.63;7.83;;;15.90;99.90;;;;;;5108881;28;20233;-71
2021/10/03 05:49:51;;;;;;;9.47;8.60;;;15.90;99.90;;;;;;5108594;28;20616;-71
2021/10/03 05:52:18;;;;;;;9.27;8.27;;;15.90;99.90;;;;;;5108878;28;20206;-71
2021/10/03 05:54:44;;;;;;;9.03;8.30;;;16.00;99.90;;;;;;5108435;28;20812;-71
2021/10/03 05:57:12;;;;;;;9.27;8.37;;;16.00;99.90;;;;;;5108883;28;20218;-71
2021/10/03 05:59:39;;;;;;;10.57;8.83;;;16.00;99.90;;;;;;5108014;28;20243;-71
2021/10/03 06:02:05;;;;;;;9.30;8.43;;;16.00;99.90;;;;;;5108547;28;20202;-72
2021/10/03 06:04:32;;;;;;;9.40;8.27;;;16.00;99.90;;;;;;5108529;28;20713;-71
2021/10/03 06:06:58;;;;;;;9.43;7.97;;;16.00;99.90;;;;;;5108699;28;20210;-71
2021/10/03 06:09:25;;;;;;;9.07;8.20;;;16.00;99.90;;;;;;5108546;28;20233;-73
2021/10/03 06:11:52;;;;;;;9.73;8.23;;;16.00;99.90;;;;;;5108573;28;20667;-73
2021/10/03 06:14:20;;;;;;;9.67;8.67;;;16.00;99.90;;;;;;5112458;28;20230;-73
2021/10/03 06:16:48;;;;;;;10.07;9.10;;;16.00;99.90;;;;;;5112860;27;20251;-73
2021/10/03 06:19:14;;;;;;;8.83;8.07;;;16.00;99.90;;;;;;5112504;28;20218;-73
2021/10/03 06:21:41;;;;;;;8.23;7.57;;;16.00;99.90;;;;;;5112593;28;20198;-73
2021/10/03 06:24:08;;;;;;;10.50;8.90;;;16.00;99.90;;;;;;5112224;28;20252;-73
2021/10/03 06:26:35;;;;;;;10.37;8.27;;;16.00;99.90;;;;;;5112614;28;20259;-73
2021/10/03 06:29:03;;;;;;;10.77;8.77;;;16.10;99.90;;;;;;5112279;28;20238;-73
2021/10/03 06:31:31;;;;;;;10.63;9.40;;;16.00;99.90;;;;;;5112588;28;20202;-71
2021/10/03 06:33:58;;;;;;;9.60;8.77;;;16.10;99.90;;;;;;5112284;28;20210;-72
2021/10/03 06:36:24;;;;;;;9.47;8.37;;;16.10;99.90;;;;;;5112507;28;20245;-71
2021/10/03 06:38:51;;;;;;;8.30;7.63;;;16.10;99.90;;;;;;5112359;28;20258;-72
2021/10/03 06:41:18;;;;;;;10.57;9.20;;;16.10;99.90;;;;;;5109756;28;20297;-73
2021/10/03 06:43:44;;;;;;;11.17;9.17;;;16.10;99.90;;;;;;5112011;28;20210;-74
2021/10/03 06:46:11;;;;;;;9.87;8.90;;;16.00;99.90;;;;;;5111987;28;20995;-73
2021/10/03 06:48:39;;;;;;;9.87;8.73;;;16.00;99.90;;;;;;5112023;28;20206;-73
2021/10/03 06:51:06;;;;;;;9.50;8.70;;;16.00;99.90;;;;;;5111805;28;20230;-73
2021/10/03 06:53:34;;;;;;;10.73;8.60;;;16.10;99.90;;;;;;5111876;28;20237;-73
2021/10/03 06:56:01;;;;;;;9.93;8.93;;;16.10;99.90;;;;;;5111561;28;20312;-72
2021/10/03 06:58:28;;;;;;;10.90;9.37;;;16.10;99.90;;;;;;5111431;28;20570;-72
2021/10/03 07:00:54;;;;;;;10.23;9.30;;;16.10;99.90;;;;;;5101395;28;20202;-73
2021/10/03 07:03:21;;;;;;;9.73;8.73;;;16.10;99.90;;;;;;5091142;28;20237;-72
2021/10/03 07:05:49;;;;;;;10.23;8.93;;;16.10;99.90;;;;;;5091116;28;20276;-73
2021/10/03 07:08:15;;;;;;;10.37;9.47;;;16.10;99.90;;;;;;5091257;28;20234;-72
2021/10/03 07:10:42;;;;;;;11.93;8.63;;;16.20;99.90;;;;;;5091307;28;20203;-72
2021/10/03 07:13:11;;;;;;;10.83;9.20;;;16.20;99.90;;;;;;5090505;28;20384;-72
2021/10/03 07:15:37;;;;;;;9.17;8.23;;;16.20;99.90;;;;;;5091332;28;20824;-73
2021/10/03 07:18:04;;;;;;;13.47;9.53;;;16.20;99.90;;;;;;5090975;28;20672;-72
2021/10/03 07:20:31;;;;;;;10.33;9.33;;;16.20;99.90;;;;;;5091156;28;20203;-73
2021/10/03 07:22:59;;;;;;;10.20;8.70;;;16.20;99.90;;;;;;5090968;28;20230;-72
2021/10/03 07:25:26;;;;;;;9.77;8.83;;;16.30;99.90;;;;;;5089733;28;20242;-72
2021/10/03 07:27:53;;;;;;;10.50;9.43;;;16.30;99.90;;;;;;5090816;28;20203;-72
2021/10/03 07:30:19;;;;;;;10.17;9.27;;;16.30;99.90;;;;;;5090411;28;20672;-71
2021/10/03 07:32:46;;;;;;;12.13;9.67;;;16.30;99.90;;;;;;5090673;28;20230;-72
2021/10/03 07:35:13;;;;;;;10.23;9.30;;;16.40;99.90;;;;;;5090292;28;20287;-73
2021/10/03 07:37:39;;;;;;;10.97;9.40;;;16.40;99.90;;;;;;5116856;27;20274;-72
2021/10/03 07:40:08;;;;;;;9.37;8.50;;;16.40;99.90;;;;;;5130882;27;20264;-72
2021/10/03 07:42:36;;;;;;;10.70;9.60;;;16.40;99.90;;;;;;5101039;27;20515;-72
2021/10/03 07:45:02;;;;;;;9.60;8.70;;;16.50;99.90;;;;;;5086805;28;20245;-72
2021/10/03 07:47:29;;;;;;;9.90;8.90;;;16.40;99.90;;;;;;5086580;28;20689;-72
2021/10/03 07:49:56;;;;;;;10.30;8.60;;;16.40;99.90;;;;;;5086820;28;20260;-72
2021/10/03 07:52:22;;;;;;;10.10;9.20;;;16.40;99.90;;;;;;5086536;28;20826;-72
2021/10/03 07:54:49;;;;;;;10.13;9.23;;;16.40;99.90;;;;;;5086218;28;20203;-72
2021/10/03 07:57:17;;;;;;;9.77;8.83;;;16.40;99.90;;;;;;5086882;28;20286;-72
2021/10/03 07:59:44;;;;;;;9.53;8.73;;;16.40;99.90;;;;;;5086434;28;20231;-72
2021/10/03 08:02:10;;;;;;;10.00;9.10;;;16.40;99.90;;;;;;5086777;28;20218;-72
2021/10/03 08:04:37;;;;;;;11.43;9.93;;;16.40;99.90;;;;;;5086355;28;20762;-72
2021/10/03 08:07:04;;;;;;;9.63;8.73;;;16.50;99.90;;;;;;5086628;28;20295;-72
2021/10/03 08:09:30;;;;;;;14.10;9.00;;;16.50;99.90;;;;;;5086416;28;20734;-73
2021/10/03 08:11:57;;;;;;;9.90;8.83;;;16.50;99.90;;;;;;5086613;28;20287;-72
2021/10/03 08:14:25;;;;;;;10.63;9.63;;;16.60;99.90;;;;;;5086184;28;20218;-73
2021/10/03 08:16:52;;;;;;;9.97;9.03;;;16.60;99.90;;;;;;5086450;28;20238;-74
2021/10/03 08:19:18;;;;;;;10.50;9.40;;;16.60;99.90;;;;;;5085997;28;20738;-72
2021/10/03 08:21:45;;;;;;;10.00;8.97;;;16.60;99.90;;;;;;5086504;28;20238;-72
2021/10/03 08:24:12;;;;;;;9.83;8.93;;;16.60;99.90;;;;;;5086108;28;20310;-72
2021/10/03 08:26:39;;;;;;;9.90;8.90;;;16.60;99.90;;;;;;5086603;28;20238;-72
2021/10/03 08:29:06;;;;;;;10.67;9.27;;;16.70;99.90;;;;;;5086148;28;20206;-72
2021/10/03 08:31:34;;;;;;;10.67;8.63;;;16.70;99.90;;;;;;5086095;28;20225;-72
2021/10/03 08:34:01;;;;;;;9.80;8.90;;;16.70;99.90;;;;;;5085934;28;20226;-72
2021/10/03 08:36:27;;;;;;;9.70;8.77;;;16.80;99.90;;;;;;5084556;28;20226;-72
2021/10/03 08:38:55;;;;;;;9.47;8.70;;;16.80;99.90;;;;;;5086206;28;20206;-72
2021/10/03 08:41:22;;;;;;;9.77;8.87;;;16.80;99.90;;;;;;5085423;28;20659;-71
2021/10/03 08:43:52;;;;;;;9.43;8.53;;;16.90;99.90;;;;;;5085737;28;20213;-71
2021/10/03 08:46:24;;;;;;;9.07;8.23;;;16.90;99.90;;;;;;5085186;28;20640;-71
2021/10/03 08:48:53;;;;;;;9.73;8.70;;;17.00;99.90;;;;;;5085461;28;20575;-72
2021/10/03 08:51:20;;;;;;;9.43;8.57;;;17.00;99.90;;;;;;5085509;28;20242;-72
2021/10/03 08:53:47;;;;;;;11.27;8.77;;;17.10;99.90;;;;;;5085278;28;20268;-72
2021/10/03 08:56:14;;;;;;;9.07;8.20;;;17.10;99.90;;;;;;5085930;28;20234;-72
2021/10/03 08:58:41;;;;;;;8.93;8.13;;;17.10;99.90;;;;;;5085410;28;20266;-72
2021/10/03 09:01:10;;;;;;;9.53;8.63;;;17.10;99.90;;;;;;5085136;28;20217;-72
2021/10/03 09:03:37;;;;;;;8.97;8.07;;;17.10;99.90;;;;;;5085430;28;20217;-72
2021/10/03 09:06:05;;;;;;;9.43;8.27;;;17.10;99.90;;;;;;5084843;28;20260;-72
2021/10/03 09:08:38;;;;;;;10.90;9.90;;;17.20;99.90;;;;;;5085026;28;20232;-72
2021/10/03 09:11:06;;;;;;;10.13;9.30;;;17.10;99.90;;;;;;5085217;28;20199;-72
2021/10/03 09:13:45;;;;;;;9.77;8.87;;;17.10;99.90;;;;;;5085214;28;20304;-71
2021/10/03 09:16:14;;;;;;;10.30;8.60;;;17.10;99.90;;;;;;5085095;28;20210;-72
2021/10/03 09:18:44;;;;;;;9.93;8.70;;;17.10;99.90;;;;;;5085263;28;20268;-71
2021/10/03 09:21:15;;;;;;;10.07;8.87;;;17.10;99.90;;;;;;5085474;28;20202;-71
2021/10/03 09:23:42;;;;;;;8.73;7.83;;;17.10;99.90;;;;;;5085326;28;20665;-72
2021/10/03 09:26:15;;;;;;;10.10;8.87;;;17.10;99.90;;;;;;5084819;28;20234;-72
2021/10/03 09:28:42;;;;;;;9.07;8.27;;;17.10;99.90;;;;;;5084414;28;20664;-71
2021/10/03 09:31:11;;;;;;;9.43;8.33;;;17.20;99.90;;;;;;5085025;28;20252;-72
2021/10/03 09:33:43;;;;;;;9.17;8.47;;;17.20;99.90;;;;;;5084947;28;20509;-72
2021/10/03 09:36:12;;;;;;;8.67;7.87;;;17.20;99.90;;;;;;5084700;28;20207;-72
2021/10/03 09:38:48;;;;;;;8.77;8.00;;;17.30;99.90;;;;;;5084963;28;20214;-72
2021/10/03 09:41:16;;;;;;;9.80;8.80;;;17.30;99.90;;;;;;5084600;28;20214;-72
2021/10/03 09:43:48;;;;;;;9.60;8.63;;;17.30;99.90;;;;;;5084674;28;20210;-72
2021/10/03 09:46:36;;;;;;;8.80;8.03;;;17.30;99.90;;;;;;5084539;28;20761;-72
2021/10/03 09:49:05;;;;;;;10.87;8.30;;;17.30;99.90;;;;;;5084735;28;20669;-72
2021/10/03 09:51:34;;;;;;;9.23;8.40;;;17.30;99.90;;;;;;5084534;28;20737;-72
2021/10/03 09:54:02;;;;;;;9.00;8.10;;;17.30;99.90;;;;;;5084718;28;20352;-73
2021/10/03 09:56:31;;;;;;;9.23;8.33;;;17.30;99.90;;;;;;5084662;28;20231;-73
2021/10/03 09:58:59;;;;;;;9.47;8.67;;;17.30;99.90;;;;;;5084666;28;20246;-72
2021/10/03 10:01:26;;;;;;;9.07;8.17;;;17.30;99.90;;;;;;5088425;28;20256;-72
2021/10/03 10:03:53;;;;;;;8.67;7.87;;;17.30;99.90;;;;;;5088206;28;20206;-72
2021/10/03 10:06:22;;;;;;;8.77;7.97;;;17.40;99.90;;;;;;5088042;28;20235;-72
2021/10/03 10:08:55;;;;;;;10.17;8.40;;;17.40;99.90;;;;;;5088314;28;20203;-72
2021/10/03 10:11:28;;;;;;;12.23;11.10;;;17.50;99.90;;;;;;5087855;28;20712;-72
2021/10/03 10:13:57;;;;;;;10.03;9.17;;;17.60;99.90;;;;;;5088226;28;20566;-72
2021/10/03 10:16:33;;;;;;;10.40;9.40;;;17.60;99.90;;;;;;5088055;28;20206;-72
2021/10/03 10:19:28;;;;;;;12.97;8.73;;;17.70;99.90;;;;;;5091665;28;20314;-72
2021/10/03 10:22:41;;;;;;;9.73;8.83;;;17.80;99.90;;;;;;5104014;28;20224;-72
2021/10/03 10:25:18;;;;;;;11.07;8.20;;;17.90;99.90;;;;;;5088006;28;20230;-72
2021/10/03 10:28:07;;;;;;;9.23;8.43;;;18.00;99.90;;;;;;5086463;28;20275;-72
2021/10/03 10:30:35;;;;;;;12.07;10.30;;;18.00;99.90;;;;;;5085717;28;20240;-72
2021/10/03 10:33:17;;;;;;;8.67;7.97;;;18.10;99.90;;;;;;5085495;28;20272;-72
2021/10/03 10:35:45;;;;;;;9.20;8.27;;;18.20;99.90;;;;;;5085396;28;20584;-72
2021/10/03 10:38:19;;;;;;;8.20;7.53;;;18.40;99.90;;;;;;5085063;28;20214;-72
2021/10/03 10:40:51;;;;;;;8.60;7.63;;;18.40;99.90;;;;;;5085463;28;20299;-72
2021/10/03 10:43:44;;;;;;;8.57;7.77;;;18.60;99.90;;;;;;5085178;28;20206;-72
2021/10/03 10:46:46;;;;;;;13.13;10.63;;;18.80;99.90;;;;;;5084799;28;20619;-72
2021/10/03 10:49:32;;;;;;;7.57;6.93;;;18.90;99.90;;;;;;5084934;28;20656;-72
2021/10/03 10:52:30;;;;;;;9.83;9.03;;;19.10;99.90;;;;;;5085379;28;20248;-72
2021/10/03 10:55:22;;;;;;;12.13;11.00;;;19.30;99.90;;;;;;5085645;28;20227;-72
2021/10/03 10:58:23;;;;;;;9.47;8.60;;;19.40;99.90;;;;;;5085780;28;20246;-72
2021/10/03 11:01:02;;;;;;;10.33;9.23;;;19.60;99.90;;;;;;5088398;28;20198;-73
2021/10/03 11:03:59;;;;;;;8.03;7.17;;;19.60;99.90;;;;;;5089201;28;20199;-73
2021/10/03 11:06:54;;;;;;;8.20;7.57;;;19.70;99.90;;;;;;5088842;28;20233;-73
2021/10/03 11:09:21;;;;;;;7.47;6.93;;;19.70;99.90;;;;;;5088583;28;20195;-72
2021/10/03 11:12:02;;;;;;;7.67;6.97;;;19.70;99.90;;;;;;5088680;28;20231;-73
2021/10/03 11:14:30;;;;;;;7.33;6.73;;;19.80;99.90;;;;;;5088413;28;20191;-73
2021/10/03 11:17:06;;;;;;;7.50;6.80;;;19.80;99.90;;;;;;5098901;28;20248;-72
2021/10/03 11:19:36;;;;;;;9.33;6.53;;;19.80;99.90;;;;;;5095917;28;20194;-72
2021/10/03 11:22:04;;;;;;;7.00;6.30;;;19.90;99.90;;;;;;5090338;28;20880;-72
2021/10/03 11:24:33;;;;;;;6.90;6.40;;;20.00;99.90;;;;;;5090468;28;20235;-72
2021/10/03 11:27:02;;;;;;;7.60;7.00;;;20.10;99.90;;;;;;5093085;28;20258;-72
2021/10/03 11:29:31;;;;;;;7.03;6.40;;;20.20;99.90;;;;;;5095712;28;20271;-72
2021/10/03 11:31:59;;;;;;;7.40;6.80;;;20.30;99.90;;;;;;5099136;28;20704;-72
2021/10/03 11:34:29;;;;;;;7.20;6.60;;;20.30;99.90;;;;;;5090926;28;20671;-72
2021/10/03 11:36:55;;;;;;;7.60;6.90;;;20.40;99.90;;;;;;5090612;28;20222;-72
2021/10/03 11:39:48;;;;;;;8.17;7.40;;;20.30;99.90;;;;;;5089916;28;20267;-72
2021/10/03 11:42:19;;;;;;;6.70;6.20;;;20.30;99.90;;;;;;5089944;28;20194;-72
2021/10/03 11:44:47;;;;;;;7.17;6.57;;;20.30;99.90;;;;;;5089989;28;20201;-72
2021/10/03 11:47:15;;;;;;;7.17;6.50;;;20.30;99.90;;;;;;5101913;28;20362;-72
2021/10/03 11:49:44;;;;;;;7.50;6.70;;;20.30;99.90;;;;;;5096840;28;20226;-72
2021/10/03 11:52:14;;;;;;;8.87;6.67;;;20.30;99.90;;;;;;5093042;28;20199;-73
2021/10/03 11:54:47;;;;;;;7.00;6.32;;;20.20;99.90;;;;;;5102223;28;20706;-72
2021/10/03 11:57:19;;;;;;;8.23;6.60;;;20.30;99.90;;;;;;5092337;28;20278;-72
2021/10/03 11:59:47;;;;;;;7.00;6.40;;;20.20;99.90;;;;;;5095928;28;20715;-72
2021/10/03 12:02:16;;;;;;;10.60;6.70;;;20.20;99.90;;;;;;5097157;28;20206;-72
2021/10/03 12:04:58;;;;;;;6.87;6.20;;;20.20;99.90;;;;;;5094462;28;20210;-72
2021/10/03 12:07:25;;;;;;;7.73;6.73;;;20.30;99.90;;;;;;5097778;28;20250;-72
2021/10/03 12:09:59;;;;;;;7.03;6.40;;;20.30;99.90;;;;;;5092877;28;20199;-72
2021/10/03 12:13:03;;;;;;;7.00;5.90;;;20.30;99.90;;;;;;5104215;28;20811;-72
2021/10/03 12:15:50;;;;;;;7.40;6.50;;;20.40;99.90;;;;;;5087192;28;20230;-72
2021/10/03 12:18:35;;;;;;;7.10;6.43;;;20.40;99.90;;;;;;5087070;28;20233;-72
2021/10/03 12:21:04;;;;;;;6.97;6.00;;;20.40;99.90;;;;;;5087269;28;20195;-72
2021/10/03 12:23:44;;;;;;;7.27;6.57;;;20.30;99.90;;;;;;5086755;28;20619;-74
2021/10/03 12:26:13;;;;;;;7.60;6.77;;;20.30;99.90;;;;;;5089912;28;20588;-72
2021/10/03 12:29:01;;;;;;;7.40;6.70;;;20.40;99.90;;;;;;5093598;28;20202;-73
2021/10/03 12:31:41;;;;;;;7.67;6.80;;;20.40;99.90;;;;;;5100440;28;20198;-74
2021/10/03 12:34:28;;;;;;;7.80;7.07;;;20.50;99.90;;;;;;5094906;28;20279;-73
2021/10/03 12:36:58;;;;;;;7.75;6.75;;;20.60;99.90;;;;;;5093606;28;20218;-72
2021/10/03 12:39:27;;;;;;;6.80;6.30;;;20.70;99.90;;;;;;5095724;28;20194;-73
2021/10/03 12:41:56;;;;;;;8.03;6.93;;;20.80;99.90;;;;;;5097493;28;20233;-73
2021/10/03 12:44:23;;;;;;;6.77;6.23;;;20.70;99.90;;;;;;5102164;28;20238;-73
2021/10/03 12:46:51;;;;;;;7.10;6.60;;;20.80;99.90;;;;;;5100773;28;20306;-73
2021/10/03 12:49:18;;;;;;;7.53;6.82;;;20.80;99.90;;;;;;5094798;28;20198;-73
2021/10/03 12:51:45;;;;;;;8.50;6.82;;;20.80;99.90;;;;;;5105961;28;20259;-72
2021/10/03 12:54:11;;;;;;;8.93;6.40;;;20.80;99.90;;;;;;5106715;27;20556;-72